createdAt,value
2019-06-01T00:00:42.380Z,15.00
2019-06-01T00:03:11.667Z,15.10
2019-06-01T00:05:41.096Z,15.20
2019-06-01T00:08:10.292Z,15.30
2019-06-01T00:10:39.457Z,15.30
2019-06-01T00:13:08.576Z,15.40
2019-06-01T00:15:37.760Z,15.40
2019-06-01T00:18:06.910Z,15.30
2019-06-01T00:20:36.137Z,15.10
2019-06-01T00:23:05.260Z,15.20
2019-06-01T00:25:34.453Z,15.20
2019-06-01T00:28:03.597Z,15.20
2019-06-01T00:30:32.792Z,15.30
2019-06-01T00:33:01.981Z,15.30
2019-06-01T00:35:31.388Z,15.10
2019-06-01T00:38:00.521Z,15.00
2019-06-01T00:40:29.700Z,15.10
2019-06-01T00:42:58.870Z,15.30
2019-06-01T00:45:28.013Z,15.30
2019-06-01T00:47:57.144Z,15.30
2019-06-01T00:50:26.350Z,15.30
2019-06-01T00:52:55.493Z,15.30
2019-06-01T00:55:24.676Z,15.30
2019-06-01T00:57:54.013Z,15.30
2019-06-01T01:00:23.751Z,15.20
2019-06-01T01:02:54.291Z,15.20
2019-06-01T01:05:23.833Z,15.00
2019-06-01T01:07:53.536Z,15.10
2019-06-01T01:10:23.205Z,14.80
2019-06-01T01:13:14.755Z,14.80
2019-06-01T01:15:45.126Z,14.80
2019-06-01T01:18:14.429Z,15.00
2019-06-01T01:20:43.761Z,15.10
2019-06-01T01:23:12.986Z,14.70
2019-06-01T01:25:42.112Z,15.00
2019-06-01T01:28:11.273Z,14.90
2019-06-01T01:30:41.016Z,14.70
2019-06-01T01:33:10.175Z,14.70
2019-06-01T01:35:39.392Z,14.60
2019-06-01T01:38:08.537Z,14.70
2019-06-01T01:40:37.698Z,14.90
2019-06-01T01:43:06.857Z,14.80
2019-06-01T01:45:36.070Z,14.60
2019-06-01T01:48:05.412Z,14.70
2019-06-01T01:50:34.630Z,14.70
2019-06-01T01:53:04.130Z,14.60
2019-06-01T01:55:33.610Z,14.40
2019-06-01T01:58:02.779Z,14.50
2019-06-01T02:00:40.374Z,14.40
2019-06-01T02:03:11.324Z,14.50
2019-06-01T02:05:40.473Z,14.60
2019-06-01T02:08:10.060Z,14.60
2019-06-01T02:10:39.204Z,14.50
2019-06-01T02:13:08.475Z,14.50
2019-06-01T02:15:39.164Z,14.20
2019-06-01T02:18:08.407Z,14.10
2019-06-01T02:20:37.829Z,14.10
2019-06-01T02:23:07.194Z,14.30
2019-06-01T02:25:36.889Z,14.40
2019-06-01T02:28:06.275Z,14.20
2019-06-01T02:30:35.528Z,14.00
2019-06-01T02:33:04.900Z,13.70
2019-06-01T02:35:34.330Z,13.80
2019-06-01T02:38:05.489Z,13.70
2019-06-01T02:40:35.325Z,13.60
2019-06-01T02:43:06.711Z,13.60
2019-06-01T02:45:35.769Z,14.00
2019-06-01T02:48:06.396Z,14.10
2019-06-01T02:50:36.010Z,14.20
2019-06-01T02:53:07.058Z,14.20
2019-06-01T02:55:36.348Z,14.20
2019-06-01T02:58:06.730Z,14.10
2019-06-01T03:01:56.825Z,14.20
2019-06-01T03:04:15.854Z,14.20
2019-06-01T03:06:47.177Z,14.20
2019-06-01T03:09:16.633Z,14.10
2019-06-01T03:11:48.393Z,14.20
2019-06-01T03:14:19.728Z,14.10
2019-06-01T03:16:51.483Z,14.10
2019-06-01T03:19:23.051Z,14.00
2019-06-01T03:21:55.476Z,14.00
2019-06-01T03:24:25.888Z,13.70
2019-06-01T03:26:55.949Z,13.90
2019-06-01T03:29:28.387Z,14.00
2019-06-01T03:32:17.737Z,14.00
2019-06-01T03:34:28.642Z,13.90
2019-06-01T03:36:57.933Z,13.90
2019-06-01T03:39:28.280Z,13.70
2019-06-01T03:41:57.658Z,13.70
2019-06-01T03:44:26.901Z,13.80
2019-06-01T03:46:56.052Z,13.70
2019-06-01T03:49:25.233Z,13.80
2019-06-01T03:51:54.456Z,13.70
2019-06-01T03:54:23.673Z,13.70
2019-06-01T03:56:52.971Z,13.80
2019-06-01T03:59:22.116Z,13.80
2019-06-01T04:01:51.417Z,13.50
2019-06-01T04:04:20.610Z,13.70
2019-06-01T04:06:49.871Z,13.80
2019-06-01T04:09:19.004Z,13.90
2019-06-01T04:11:48.180Z,13.90
2019-06-01T04:14:17.402Z,14.00
2019-06-01T04:16:46.722Z,14.00
2019-06-01T04:19:15.888Z,13.80
2019-06-01T04:21:45.089Z,13.80
2019-06-01T04:24:14.320Z,13.80
2019-06-01T04:26:43.512Z,13.80
2019-06-01T04:29:12.746Z,14.00
2019-06-01T04:31:41.956Z,14.00
2019-06-01T04:34:11.175Z,13.80
2019-06-01T04:36:40.416Z,14.00
2019-06-01T04:39:09.600Z,14.10
2019-06-01T04:41:38.837Z,13.80
2019-06-01T04:44:08.006Z,13.90
2019-06-01T04:46:37.589Z,13.90
2019-06-01T04:49:06.757Z,13.90
2019-06-01T04:51:36.040Z,14.00
2019-06-01T04:54:05.230Z,14.20
2019-06-01T04:56:34.429Z,14.30
2019-06-01T04:59:04.811Z,14.30
2019-06-01T05:01:34.140Z,14.50
2019-06-01T05:04:03.292Z,14.60
2019-06-01T05:06:32.476Z,14.60
2019-06-01T05:09:01.752Z,14.60
2019-06-01T05:11:30.892Z,14.60
2019-06-01T05:14:00.602Z,14.70
2019-06-01T05:16:29.985Z,14.70
2019-06-01T05:18:59.359Z,14.80
2019-06-01T05:21:28.518Z,14.90
2019-06-01T05:23:57.683Z,15.00
2019-06-01T05:26:26.801Z,15.00
2019-06-01T05:28:56.163Z,15.10
2019-06-01T05:31:25.468Z,14.90
2019-06-01T05:33:54.774Z,15.10
2019-06-01T05:36:23.932Z,14.90
2019-06-01T05:38:53.121Z,15.10
2019-06-01T05:41:22.262Z,15.20
2019-06-01T05:43:51.448Z,15.20
2019-06-01T05:46:20.659Z,15.40
2019-06-01T05:48:49.845Z,15.50
2019-06-01T05:51:20.162Z,15.50
2019-06-01T05:53:49.410Z,15.70
2019-06-01T05:56:19.021Z,15.80
2019-06-01T05:58:48.385Z,15.90
2019-06-01T06:01:19.674Z,15.90
2019-06-01T06:03:48.484Z,15.80
2019-06-01T06:06:17.824Z,16.20
2019-06-01T06:08:47.080Z,16.30
2019-06-01T06:11:16.999Z,16.20
2019-06-01T06:13:46.229Z,16.30
2019-06-01T06:16:34.457Z,16.50
2019-06-01T06:19:03.609Z,16.50
2019-06-01T06:21:32.773Z,16.60
2019-06-01T06:24:01.910Z,16.90
2019-06-01T06:26:31.085Z,17.00
2019-06-01T06:29:00.344Z,17.10
2019-06-01T06:31:29.507Z,17.10
2019-06-01T06:33:58.673Z,17.20
2019-06-01T06:36:28.050Z,17.30
2019-06-01T06:38:57.195Z,17.40
2019-06-01T06:41:26.329Z,17.60
2019-06-01T06:43:55.649Z,17.80
2019-06-01T06:46:24.937Z,17.90
2019-06-01T06:48:54.254Z,17.90
2019-06-01T06:51:23.420Z,18.10
2019-06-01T06:53:52.573Z,18.20
2019-06-01T06:56:22.040Z,18.40
2019-06-01T06:58:51.260Z,18.60
2019-06-01T07:01:20.801Z,18.70
2019-06-01T07:03:50.097Z,18.80
2019-06-01T07:06:19.524Z,19.00
2019-06-01T07:08:49.126Z,19.10
2019-06-01T07:11:19.120Z,19.30
2019-06-01T07:13:48.577Z,19.40
2019-06-01T07:16:17.823Z,19.50
2019-06-01T07:18:46.944Z,19.50
2019-06-01T07:21:16.696Z,19.70
2019-06-01T07:23:45.918Z,19.80
2019-06-01T07:26:15.094Z,20.00
2019-06-01T07:28:44.732Z,20.10
2019-06-01T07:31:14.099Z,20.20
2019-06-01T07:33:43.234Z,20.40
2019-06-01T07:36:12.426Z,20.50
2019-06-01T07:38:41.580Z,20.60
2019-06-01T07:41:10.732Z,20.80
2019-06-01T07:43:39.879Z,20.80
2019-06-01T07:46:09.057Z,20.90
2019-06-01T07:48:38.210Z,21.10
2019-06-01T07:51:07.364Z,21.30
2019-06-01T07:53:36.560Z,21.50
2019-06-01T07:56:05.768Z,21.50
2019-06-01T07:58:35.021Z,21.40
2019-06-01T08:01:04.325Z,21.70
2019-06-01T08:03:34.962Z,21.70
2019-06-01T08:06:04.502Z,21.80
2019-06-01T08:08:33.679Z,21.80
2019-06-01T08:11:02.903Z,22.00
2019-06-01T08:13:35.382Z,22.20
2019-06-01T08:16:03.398Z,22.20
2019-06-01T08:18:32.725Z,22.40
2019-06-01T08:21:01.987Z,22.40
2019-06-01T08:23:32.176Z,22.50
2019-06-01T08:26:01.772Z,22.80
2019-06-01T08:28:30.998Z,23.10
2019-06-01T08:31:00.248Z,23.00
2019-06-01T08:33:32.778Z,23.00
2019-06-01T08:36:00.292Z,23.10
2019-06-01T08:38:29.733Z,23.00
2019-06-01T08:40:59.057Z,23.10
2019-06-01T08:43:29.647Z,23.20
2019-06-01T08:45:59.034Z,23.40
2019-06-01T08:48:28.283Z,23.50
2019-06-01T08:50:57.418Z,23.40
2019-06-01T08:53:27.852Z,23.70
2019-06-01T08:55:57.155Z,23.90
2019-06-01T08:58:26.391Z,24.00
2019-06-01T09:00:55.656Z,24.10
2019-06-01T09:03:25.844Z,24.30
2019-06-01T09:05:55.164Z,24.30
2019-06-01T09:08:25.549Z,24.40
2019-06-01T09:10:55.274Z,24.20
2019-06-01T09:13:25.140Z,24.30
2019-06-01T09:15:54.513Z,24.40
2019-06-01T09:18:23.692Z,24.50
2019-06-01T09:20:52.850Z,24.60
2019-06-01T09:23:21.997Z,24.60
2019-06-01T09:25:51.152Z,24.80
2019-06-01T09:28:20.281Z,25.00
2019-06-01T09:30:49.465Z,25.00
2019-06-01T09:33:18.677Z,25.10
2019-06-01T09:35:56.055Z,25.00
2019-06-01T09:38:19.128Z,25.00
2019-06-01T09:40:48.324Z,25.30
2019-06-01T09:43:17.605Z,25.50
2019-06-01T09:45:46.772Z,25.20
2019-06-01T09:48:15.932Z,25.40
2019-06-01T09:50:45.122Z,25.40
2019-06-01T09:53:14.361Z,25.60
2019-06-01T09:55:43.689Z,25.50
2019-06-01T09:58:12.936Z,25.50
2019-06-01T10:00:43.805Z,25.60
2019-06-01T10:03:12.988Z,25.80
2019-06-01T10:05:42.145Z,25.80
2019-06-01T10:08:11.415Z,25.70
2019-06-01T10:10:42.299Z,25.60
2019-06-01T10:13:11.745Z,25.70
2019-06-01T10:15:41.004Z,25.80
2019-06-01T10:18:10.290Z,25.80
2019-06-01T10:20:39.806Z,26.00
2019-06-01T10:23:09.049Z,26.10
2019-06-01T10:25:38.511Z,26.20
2019-06-01T10:28:08.004Z,26.20
2019-06-01T10:30:37.939Z,26.30
2019-06-01T10:33:07.172Z,26.30
2019-06-01T10:35:36.937Z,26.50
2019-06-01T10:38:06.273Z,26.60
2019-06-01T10:40:54.517Z,26.60
2019-06-01T10:43:24.317Z,26.60
2019-06-01T10:45:53.560Z,26.70
2019-06-01T10:48:22.872Z,26.60
2019-06-01T10:50:52.031Z,27.00
2019-06-01T10:53:21.212Z,27.10
2019-06-01T10:55:50.353Z,27.00
2019-06-01T10:58:19.531Z,26.90
2019-06-01T11:00:50.987Z,27.00
2019-06-01T11:03:19.575Z,27.10
2019-06-01T11:05:48.708Z,26.70
2019-06-01T11:08:17.965Z,26.90
2019-06-01T11:10:47.132Z,27.00
2019-06-01T11:13:16.385Z,27.10
2019-06-01T11:15:45.546Z,26.80
2019-06-01T11:18:14.716Z,26.80
2019-06-01T11:20:43.862Z,26.50
2019-06-01T11:23:13.192Z,26.70
2019-06-01T11:25:43.663Z,26.70
2019-06-01T11:28:13.022Z,26.60
2019-06-01T11:30:42.228Z,26.70
2019-06-01T11:33:11.496Z,26.90
2019-06-01T11:35:41.460Z,26.60
2019-06-01T11:38:10.781Z,26.80
2019-06-01T11:40:40.806Z,27.00
2019-06-01T11:43:10.111Z,26.90
2019-06-01T11:45:39.322Z,26.70
2019-06-01T11:48:08.528Z,27.00
2019-06-01T11:50:38.731Z,27.10
2019-06-01T11:53:08.310Z,26.90
2019-06-01T11:55:37.464Z,26.90
2019-06-01T11:58:06.785Z,27.00
2019-06-01T12:00:35.949Z,27.20
2019-06-01T12:03:05.301Z,27.30
2019-06-01T12:05:35.701Z,27.50
2019-06-01T12:08:05.313Z,27.50
2019-06-01T12:10:34.609Z,27.30
2019-06-01T12:13:03.756Z,27.40
2019-06-01T12:15:32.957Z,27.50
2019-06-01T12:18:02.183Z,27.60
2019-06-01T12:20:31.351Z,27.70
2019-06-01T12:23:00.520Z,27.80
2019-06-01T12:25:29.658Z,27.70
2019-06-01T12:27:58.810Z,27.80
2019-06-01T12:30:27.965Z,27.80
2019-06-01T12:32:57.108Z,27.80
2019-06-01T12:35:26.365Z,27.80
2019-06-01T12:38:06.144Z,27.80
2019-06-01T12:40:26.882Z,28.00
2019-06-01T12:42:56.072Z,27.90
2019-06-01T12:45:25.228Z,27.80
2019-06-01T12:47:58.388Z,27.80
2019-06-01T12:50:25.273Z,27.90
2019-06-01T12:52:54.439Z,27.80
2019-06-01T12:55:23.618Z,27.60
2019-06-01T12:57:52.849Z,27.90
2019-06-01T13:00:22.264Z,27.90
2019-06-01T13:03:03.731Z,28.00
2019-06-01T13:05:22.424Z,28.00
2019-06-01T13:08:00.485Z,28.00
2019-06-01T13:10:22.537Z,28.10
2019-06-01T13:12:52.312Z,28.00
2019-06-01T13:15:21.693Z,28.00
2019-06-01T13:17:51.480Z,28.10
2019-06-01T13:20:20.967Z,28.20
2019-06-01T13:22:50.296Z,28.30
2019-06-01T13:25:19.436Z,28.00
2019-06-01T13:27:48.971Z,27.70
2019-06-01T13:30:18.835Z,27.50
2019-06-01T13:32:48.553Z,27.10
2019-06-01T13:35:18.107Z,27.10
2019-06-01T13:37:47.272Z,27.00
2019-06-01T13:40:16.732Z,26.90
2019-06-01T13:42:46.976Z,27.10
2019-06-01T13:45:16.349Z,27.10
2019-06-01T13:47:45.626Z,27.00
2019-06-01T13:50:14.980Z,27.10
2019-06-01T13:52:44.145Z,27.20
2019-06-01T13:55:13.495Z,27.50
2019-06-01T13:57:44.083Z,27.40
2019-06-01T14:00:15.813Z,27.20
2019-06-01T14:02:48.785Z,27.20
2019-06-01T14:05:15.881Z,27.10
2019-06-01T14:07:45.442Z,27.10
2019-06-01T14:10:15.814Z,27.10
2019-06-01T14:12:45.313Z,27.10
2019-06-01T14:15:15.294Z,27.10
2019-06-01T14:18:03.599Z,27.30
2019-06-01T14:20:32.857Z,27.20
2019-06-01T14:23:02.021Z,27.30
2019-06-01T14:25:31.181Z,27.30
2019-06-01T14:28:00.372Z,27.20
2019-06-01T14:30:29.639Z,27.30
2019-06-01T14:32:58.896Z,27.40
2019-06-01T14:35:28.072Z,27.50
2019-06-01T14:37:57.237Z,27.50
2019-06-01T14:40:26.560Z,27.60
2019-06-01T14:42:55.758Z,27.70
2019-06-01T14:45:25.125Z,27.60
2019-06-01T14:47:55.498Z,27.60
2019-06-01T14:50:24.839Z,27.30
2019-06-01T14:52:54.017Z,27.20
2019-06-01T14:55:23.175Z,27.10
2019-06-01T14:57:52.541Z,27.10
2019-06-01T15:00:22.404Z,26.90
2019-06-01T15:02:52.158Z,26.70
2019-06-01T15:05:21.507Z,26.40
2019-06-01T15:07:50.730Z,26.30
2019-06-01T15:10:20.164Z,26.20
2019-06-01T15:12:54.554Z,26.20
2019-06-01T15:15:20.665Z,26.20
2019-06-01T15:17:49.945Z,26.20
2019-06-01T15:20:20.085Z,26.30
2019-06-01T15:22:50.035Z,26.20
2019-06-01T15:25:19.435Z,26.20
2019-06-01T15:27:48.600Z,26.10
2019-06-01T15:30:19.354Z,26.10
2019-06-01T15:32:48.508Z,26.10
2019-06-01T15:35:18.005Z,26.20
2019-06-01T15:37:47.190Z,26.30
2019-06-01T15:40:16.648Z,26.40
2019-06-01T15:43:04.881Z,26.40
2019-06-01T15:45:34.023Z,26.40
2019-06-01T15:48:03.243Z,26.50
2019-06-01T15:50:32.428Z,26.50
2019-06-01T15:53:01.674Z,26.50
2019-06-01T15:55:30.912Z,26.50
2019-06-01T15:58:00.712Z,26.50
2019-06-01T16:00:30.072Z,26.50
2019-06-01T16:02:59.228Z,26.60
2019-06-01T16:05:28.728Z,26.50
2019-06-01T16:07:59.215Z,26.60
2019-06-01T16:10:28.614Z,26.60
2019-06-01T16:12:57.814Z,26.50
2019-06-01T16:15:26.977Z,26.50
2019-06-01T16:17:56.155Z,26.60
2019-06-01T16:20:25.296Z,26.60
2019-06-01T16:22:54.503Z,26.60
2019-06-01T16:25:23.645Z,26.50
2019-06-01T16:27:52.852Z,26.50
2019-06-01T16:30:22.225Z,26.40
2019-06-01T16:32:51.481Z,26.30
2019-06-01T16:35:20.764Z,26.30
2019-06-01T16:37:49.966Z,26.30
2019-06-01T16:40:19.186Z,26.20
2019-06-01T16:42:48.358Z,26.20
2019-06-01T16:45:18.716Z,26.20
2019-06-01T16:47:47.921Z,26.20
2019-06-01T16:50:17.341Z,26.20
2019-06-01T16:52:46.501Z,26.20
2019-06-01T16:55:15.900Z,26.20
2019-06-01T16:57:45.459Z,26.20
2019-06-01T17:00:16.532Z,26.20
2019-06-01T17:02:45.711Z,26.20
2019-06-01T17:05:15.340Z,26.20
2019-06-01T17:07:44.531Z,26.20
2019-06-01T17:10:25.823Z,26.20
2019-06-01T17:12:46.563Z,26.20
2019-06-01T17:15:16.321Z,26.10
2019-06-01T17:17:45.464Z,26.10
2019-06-01T17:20:43.464Z,26.00
2019-06-01T17:23:26.365Z,26.10
2019-06-01T17:25:43.996Z,26.10
2019-06-01T17:28:13.136Z,26.00
2019-06-01T17:30:42.757Z,26.00
2019-06-01T17:33:12.017Z,26.00
2019-06-01T17:35:41.316Z,26.00
2019-06-01T17:38:12.212Z,25.90
2019-06-01T17:40:43.381Z,25.80
2019-06-01T17:43:13.223Z,25.80
2019-06-01T17:45:42.843Z,25.80
2019-06-01T17:48:25.082Z,25.80
2019-06-01T17:50:43.268Z,25.80
2019-06-01T17:53:13.043Z,25.70
2019-06-01T17:55:44.150Z,25.70
2019-06-01T17:58:13.415Z,25.70
2019-06-01T18:00:43.013Z,25.70
2019-06-01T18:03:12.298Z,25.60
2019-06-01T18:05:41.593Z,25.50
2019-06-01T18:08:11.145Z,25.50
2019-06-01T18:11:01.873Z,25.30
2019-06-01T18:13:31.294Z,25.20
2019-06-01T18:16:02.873Z,25.10
2019-06-01T18:18:31.602Z,25.20
2019-06-01T18:21:02.140Z,25.10
2019-06-01T18:23:31.856Z,25.10
2019-06-01T18:26:02.428Z,25.00
2019-06-01T18:28:31.787Z,24.90
2019-06-01T18:31:00.932Z,24.70
2019-06-01T18:33:30.140Z,24.60
2019-06-01T18:35:59.329Z,24.50
2019-06-01T18:38:28.598Z,24.30
2019-06-01T18:41:09.549Z,24.20
2019-06-01T18:43:28.991Z,24.10
2019-06-01T18:45:59.113Z,23.90
2019-06-01T18:48:28.821Z,23.70
2019-06-01T18:50:58.228Z,23.60
2019-06-01T18:53:27.390Z,23.40
2019-06-01T18:55:56.574Z,23.20
2019-06-01T18:58:25.940Z,23.10
2019-06-01T19:00:55.146Z,23.10
2019-06-01T19:03:24.308Z,23.10
2019-06-01T19:05:53.494Z,23.00
2019-06-01T19:08:22.730Z,22.90
2019-06-01T19:10:51.958Z,22.80
2019-06-01T19:13:21.315Z,22.80
2019-06-01T19:15:50.485Z,22.80
2019-06-01T19:18:19.653Z,22.70
2019-06-01T19:20:48.806Z,22.70
2019-06-01T19:23:21.771Z,22.50
2019-06-01T19:25:48.932Z,22.30
2019-06-01T19:28:18.183Z,22.40
2019-06-01T19:30:47.721Z,22.30
2019-06-01T19:33:18.984Z,22.20
2019-06-01T19:35:48.644Z,22.20
2019-06-01T19:38:19.614Z,22.00
2019-06-01T19:40:49.226Z,21.90
2019-06-01T19:43:18.398Z,22.00
2019-06-01T19:45:47.553Z,21.90
2019-06-01T19:48:16.872Z,21.80
2019-06-01T19:50:46.900Z,21.50
2019-06-01T19:53:16.783Z,21.50
2019-06-01T19:55:46.103Z,21.30
2019-06-01T19:58:16.194Z,21.20
2019-06-01T20:00:45.688Z,21.30
2019-06-01T20:03:19.026Z,21.00
2019-06-01T20:05:45.748Z,20.90
2019-06-01T20:08:16.198Z,20.90
2019-06-01T20:10:45.674Z,21.00
2019-06-01T20:13:15.221Z,20.90
2019-06-01T20:15:44.790Z,20.90
2019-06-01T20:18:14.785Z,20.60
2019-06-01T20:20:44.111Z,20.60
2019-06-01T20:23:13.472Z,20.50
2019-06-01T20:25:42.689Z,20.50
2019-06-01T20:28:12.322Z,20.40
2019-06-01T20:30:42.590Z,20.50
2019-06-01T20:33:11.970Z,20.40
2019-06-01T20:35:41.305Z,20.30
2019-06-01T20:38:10.965Z,20.40
2019-06-01T20:40:41.242Z,20.30
2019-06-01T20:43:10.470Z,20.30
2019-06-01T20:45:39.729Z,20.20
2019-06-01T20:48:08.983Z,20.20
2019-06-01T20:50:38.315Z,20.20
2019-06-01T20:53:07.572Z,20.10
2019-06-01T20:55:36.735Z,20.10
2019-06-01T20:58:06.040Z,20.10
2019-06-01T21:00:35.263Z,20.20
2019-06-01T21:03:05.021Z,20.10
2019-06-01T21:05:34.191Z,20.20
2019-06-01T21:08:03.478Z,20.30
2019-06-01T21:10:32.701Z,20.40
2019-06-01T21:13:01.894Z,20.20
2019-06-01T21:15:31.191Z,20.10
2019-06-01T21:18:00.357Z,19.80
2019-06-01T21:20:30.128Z,19.80
2019-06-01T21:22:59.520Z,19.40
2019-06-01T21:25:28.717Z,19.30
2019-06-01T21:27:57.928Z,19.40
2019-06-01T21:30:27.078Z,19.30
2019-06-01T21:32:56.210Z,19.10
2019-06-01T21:35:25.613Z,19.10
2019-06-01T21:37:54.890Z,19.20
2019-06-01T21:40:25.646Z,19.20
2019-06-01T21:43:02.982Z,19.20
2019-06-01T21:45:25.855Z,19.20
2019-06-01T21:47:55.130Z,19.20
2019-06-01T21:50:24.300Z,19.00
2019-06-01T21:52:53.559Z,18.90
2019-06-01T21:55:22.705Z,19.00
2019-06-01T21:57:52.082Z,18.90
2019-06-01T22:00:30.906Z,18.90
2019-06-01T22:03:00.168Z,18.90
2019-06-01T22:05:29.307Z,18.90
2019-06-01T22:07:58.555Z,18.60
2019-06-01T22:10:27.863Z,18.70
2019-06-01T22:12:57.151Z,18.70
2019-06-01T22:15:26.314Z,18.70
2019-06-01T22:17:55.596Z,18.50
2019-06-01T22:20:25.937Z,18.50
2019-06-01T22:22:55.289Z,18.60
2019-06-01T22:25:24.438Z,18.50
2019-06-01T22:27:53.623Z,18.50
2019-06-01T22:30:24.475Z,18.60
2019-06-01T22:32:54.218Z,18.50
2019-06-01T22:35:24.643Z,18.10
2019-06-01T22:37:54.042Z,18.00
2019-06-01T22:40:23.196Z,18.20
2019-06-01T22:42:52.373Z,18.30
2019-06-01T22:45:22.107Z,17.80
2019-06-01T22:47:51.424Z,18.00
2019-06-01T22:50:20.826Z,18.10
2019-06-01T22:52:50.155Z,18.00
2019-06-01T22:55:20.067Z,18.10
2019-06-01T22:57:49.497Z,17.60
2019-06-01T23:00:19.585Z,17.90
2019-06-01T23:02:48.864Z,17.70
2019-06-01T23:05:18.037Z,17.80
2019-06-01T23:07:47.194Z,17.70
2019-06-01T23:10:16.596Z,17.60
2019-06-01T23:12:45.726Z,17.70
2019-06-01T23:15:15.280Z,17.70
2019-06-01T23:17:44.523Z,17.70
2019-06-01T23:20:14.013Z,17.50
2019-06-01T23:22:43.266Z,17.70
2019-06-01T23:25:12.528Z,17.70
2019-06-01T23:27:42.067Z,17.70
2019-06-01T23:30:11.220Z,17.70
2019-06-01T23:32:40.540Z,17.60
2019-06-01T23:35:10.129Z,17.40
2019-06-01T23:37:39.279Z,17.10
2019-06-01T23:40:09.183Z,16.90
2019-06-01T23:42:38.325Z,17.20
2019-06-01T23:45:07.988Z,17.30
2019-06-01T23:47:37.249Z,17.40
2019-06-01T23:50:06.695Z,17.50
2019-06-01T23:52:35.895Z,17.30
2019-06-01T23:55:06.441Z,17.20
2019-06-01T23:57:35.983Z,17.10
